| Date | Time | Temp. (oF) | Dew Point (oF) | Rel. Hum. (%) | Press. (in.) | Wind Dir. | Wind Speed (mph) | Hourly Rainfall (in.) |
|
|---|---|---|---|---|---|---|---|---|---|
| 1 | 09/09 | 00:00 | 70 | 64 | 83 | 30.17 | SE | 1 | 0.00 |
| 2 | 09/08 | 23:00 | 71 | 63 | 78 | 30.17 | SSE | 0 | 0.00 |
| 3 | 09/08 | 22:00 | 73 | 64 | 74 | 30.15 | SSE | 0 | 0.00 |
| 4 | 09/08 | 21:00 | 75 | 64 | 70 | 30.13 | SSE | 1 | 0.00 |
| 5 | 09/08 | 20:00 | 77 | 64 | 66 | 30.11 | SSE | 3 | 0.00 |
| 6 | 09/08 | 19:00 | 80 | 64 | 60 | 30.10 | SSE | 7 | 0.00 |
| 7 | 09/08 | 18:00 | 82 | 64 | 56 | 30.08 | ESE | 12 | 0.00 |
| 8 | 09/08 | 17:00 | 85 | 65 | 53 | 30.07 | SSE | 6 | 0.00 |
| 9 | 09/08 | 16:00 | 86 | 63 | 48 | 30.08 | SSE | 4 | 0.00 |
| 10 | 09/08 | 15:00 | 85 | 63 | 49 | 30.12 | SE | 5 | 0.00 |
| 11 | 09/08 | 14:00 | 84 | 63 | 51 | 30.14 | S | 6 | 0.00 |
| 12 | 09/08 | 13:00 | 83 | 64 | 54 | 30.15 | SSE | 7 | 0.00 |
| 13 | 09/08 | 12:00 | 81 | 65 | 59 | 30.17 | SSE | 4 | 0.00 |
| 14 | 09/08 | 11:00 | 76 | 67 | 74 | 30.18 | SSW | 3 | 0.00 |
| 15 | 09/08 | 10:00 | 72 | 67 | 86 | 30.17 | S | 6 | 0.00 |
| 16 | 09/08 | 09:00 | 69 | 66 | 93 | 30.16 | SSW | 5 | 0.00 |
| 17 | 09/08 | 08:00 | 68 | 66 | 95 | 30.17 | S | 6 | 0.00 |
| 18 | 09/08 | 07:00 | 67 | 65 | 95 | 30.16 | SSW | 3 | 0.00 |
| 19 | 09/08 | 06:00 | 65 | 62 | 92 | 30.13 | ENE | 0 | 0.00 |
| 20 | 09/08 | 05:00 | 66 | 62 | 90 | 30.11 | SE | 0 | 0.00 |
| 21 | 09/08 | 04:00 | 68 | 64 | 89 | 30.13 | SSW | 2 | 0.00 |
| 22 | 09/08 | 03:00 | 67 | 61 | 82 | 30.12 | S | 0 | 0.00 |
| 23 | 09/08 | 02:00 | 67 | 60 | 79 | 30.12 | SW | 0 | 0.00 |
| 24 | 09/08 | 01:00 | 69 | 59 | 73 | 30.13 | SW | 0 | 0.00 |